Terminal Aerodrome Forecast
Issued by NWS Albany, NY

Home | Current Version | Previous Version | Text Only | Print | Product List | Glossary On
Versions: 1 2 3 4 5 6 7 8 9 10 11 12 13 14 15 16 17 18 19 20 21 22 23 24 25 26 27
000
FTUS41 KALY 270104 AAA
TAFPOU
TAF AMD
KPOU 270104Z 2701/2724 36005KT 6SM -RA BR SCT025 OVC040
      TEMPO 2701/2703 2SM RA BR BKN008 OVC025
     FM270300 36005KT 2SM -RA BR OVC008
      TEMPO 2703/2706 4SM BR SCT008 OVC015
     FM270600 32005KT 3SM BR VCSH SCT008 OVC015
     FM271200 34008KT P6SM BKN040=

USA.gov is the U.S. government's official web portal to all federal, state and local government web resources and services.